sensor_id;sensor_type;location;lat;lon;timestamp;P1;durP1;ratioP1;P2;durP2;ratioP2
75537;SDS011;64121;48.666;8.114;2023-04-03T00:01:29;3.10;;;2.30;;
75537;SDS011;64121;48.666;8.114;2023-04-03T00:03:54;5.35;;;2.47;;
75537;SDS011;64121;48.666;8.114;2023-04-03T00:06:20;4.25;;;2.40;;
75537;SDS011;64121;48.666;8.114;2023-04-03T00:08:47;4.03;;;2.65;;
75537;SDS011;64121;48.666;8.114;2023-04-03T00:11:13;4.55;;;2.28;;
75537;SDS011;64121;48.666;8.114;2023-04-03T00:13:38;4.30;;;2.50;;
75537;SDS011;64121;48.666;8.114;2023-04-03T00:16:05;3.63;;;2.20;;
75537;SDS011;64121;48.666;8.114;2023-04-03T00:18:31;3.58;;;2.15;;
75537;SDS011;64121;48.666;8.114;2023-04-03T00:20:56;2.70;;;1.90;;
75537;SDS011;64121;48.666;8.114;2023-04-03T00:23:22;4.90;;;2.22;;
75537;SDS011;64121;48.666;8.114;2023-04-03T00:25:49;3.70;;;2.35;;
75537;SDS011;64121;48.666;8.114;2023-04-03T00:28:14;4.68;;;2.25;;
75537;SDS011;64121;48.666;8.114;2023-04-03T00:30:40;3.05;;;2.08;;
75537;SDS011;64121;48.666;8.114;2023-04-03T00:33:05;3.38;;;2.22;;
75537;SDS011;64121;48.666;8.114;2023-04-03T00:35:31;3.30;;;2.03;;
75537;SDS011;64121;48.666;8.114;2023-04-03T00:37:56;3.22;;;2.17;;
75537;SDS011;64121;48.666;8.114;2023-04-03T00:40:22;4.63;;;2.38;;
75537;SDS011;64121;48.666;8.114;2023-04-03T00:42:50;3.13;;;2.13;;
75537;SDS011;64121;48.666;8.114;2023-04-03T00:45:25;2.92;;;2.10;;
75537;SDS011;64121;48.666;8.114;2023-04-03T00:47:52;2.88;;;2.00;;
75537;SDS011;64121;48.666;8.114;2023-04-03T00:50:19;3.05;;;2.38;;
75537;SDS011;64121;48.666;8.114;2023-04-03T00:52:44;3.38;;;2.10;;
75537;SDS011;64121;48.666;8.114;2023-04-03T00:55:10;3.45;;;2.38;;
75537;SDS011;64121;48.666;8.114;2023-04-03T00:57:36;2.97;;;2.00;;
75537;SDS011;64121;48.666;8.114;2023-04-03T01:00:05;4.43;;;2.38;;
75537;SDS011;64121;48.666;8.114;2023-04-03T01:02:32;3.55;;;2.05;;
75537;SDS011;64121;48.666;8.114;2023-04-03T01:04:58;3.00;;;2.10;;
75537;SDS011;64121;48.666;8.114;2023-04-03T01:07:24;4.10;;;2.10;;
75537;SDS011;64121;48.666;8.114;2023-04-03T01:09:53;3.63;;;2.80;;
75537;SDS011;64121;48.666;8.114;2023-04-03T01:12:22;3.17;;;2.13;;
75537;SDS011;64121;48.666;8.114;2023-04-03T01:14:49;4.07;;;2.00;;
75537;SDS011;64121;48.666;8.114;2023-04-03T01:17:28;4.90;;;2.15;;
75537;SDS011;64121;48.666;8.114;2023-04-03T01:19:57;2.95;;;1.85;;
75537;SDS011;64121;48.666;8.114;2023-04-03T01:22:41;2.80;;;2.00;;
75537;SDS011;64121;48.666;8.114;2023-04-03T01:25:19;3.45;;;2.40;;
75537;SDS011;64121;48.666;8.114;2023-04-03T01:27:44;4.95;;;2.10;;
75537;SDS011;64121;48.666;8.114;2023-04-03T01:30:10;2.90;;;1.88;;
75537;SDS011;64121;48.666;8.114;2023-04-03T01:32:40;3.92;;;2.13;;
75537;SDS011;64121;48.666;8.114;2023-04-03T01:35:06;4.20;;;2.00;;
75537;SDS011;64121;48.666;8.114;2023-04-03T01:37:33;3.80;;;2.38;;
75537;SDS011;64121;48.666;8.114;2023-04-03T01:39:58;2.75;;;1.90;;
75537;SDS011;64121;48.666;8.114;2023-04-03T01:42:23;2.65;;;1.65;;
75537;SDS011;64121;48.666;8.114;2023-04-03T01:44:48;5.68;;;1.90;;
75537;SDS011;64121;48.666;8.114;2023-04-03T01:47:14;2.58;;;1.75;;
75537;SDS011;64121;48.666;8.114;2023-04-03T01:49:41;3.95;;;2.10;;
75537;SDS011;64121;48.666;8.114;2023-04-03T01:52:06;2.97;;;1.90;;
75537;SDS011;64121;48.666;8.114;2023-04-03T01:54:31;4.47;;;2.05;;
75537;SDS011;64121;48.666;8.114;2023-04-03T01:56:57;3.38;;;2.08;;
75537;SDS011;64121;48.666;8.114;2023-04-03T01:59:22;3.50;;;2.00;;
75537;SDS011;64121;48.666;8.114;2023-04-03T02:01:47;3.22;;;1.83;;
75537;SDS011;64121;48.666;8.114;2023-04-03T02:04:13;5.72;;;1.98;;
75537;SDS011;64121;48.666;8.114;2023-04-03T02:06:39;4.70;;;2.33;;
75537;SDS011;64121;48.666;8.114;2023-04-03T02:09:05;3.63;;;2.38;;
75537;SDS011;64121;48.666;8.114;2023-04-03T02:11:30;3.55;;;2.17;;
75537;SDS011;64121;48.666;8.114;2023-04-03T02:13:56;2.97;;;2.22;;
75537;SDS011;64121;48.666;8.114;2023-04-03T02:16:21;3.42;;;2.05;;
75537;SDS011;64121;48.666;8.114;2023-04-03T02:18:46;3.20;;;2.10;;
75537;SDS011;64121;48.666;8.114;2023-04-03T02:21:12;4.90;;;2.00;;
75537;SDS011;64121;48.666;8.114;2023-04-03T02:23:38;2.78;;;2.00;;
75537;SDS011;64121;48.666;8.114;2023-04-03T02:26:05;3.45;;;2.30;;
75537;SDS011;64121;48.666;8.114;2023-04-03T02:28:32;3.50;;;1.90;;
75537;SDS011;64121;48.666;8.114;2023-04-03T02:30:57;3.70;;;2.30;;
75537;SDS011;64121;48.666;8.114;2023-04-03T02:33:22;3.00;;;1.95;;
75537;SDS011;64121;48.666;8.114;2023-04-03T02:35:51;2.78;;;2.15;;
75537;SDS011;64121;48.666;8.114;2023-04-03T02:38:18;3.50;;;2.25;;
75537;SDS011;64121;48.666;8.114;2023-04-03T02:40:45;4.13;;;2.13;;
75537;SDS011;64121;48.666;8.114;2023-04-03T02:43:10;4.85;;;2.22;;
75537;SDS011;64121;48.666;8.114;2023-04-03T02:45:35;5.93;;;2.33;;
75537;SDS011;64121;48.666;8.114;2023-04-03T02:48:00;4.07;;;2.55;;
75537;SDS011;64121;48.666;8.114;2023-04-03T02:50:26;4.70;;;2.17;;
75537;SDS011;64121;48.666;8.114;2023-04-03T02:52:51;2.97;;;2.35;;
75537;SDS011;64121;48.666;8.114;2023-04-03T02:55:17;4.25;;;2.08;;
75537;SDS011;64121;48.666;8.114;2023-04-03T02:57:43;3.80;;;2.03;;
75537;SDS011;64121;48.666;8.114;2023-04-03T03:00:09;5.28;;;2.40;;
75537;SDS011;64121;48.666;8.114;2023-04-03T03:02:35;4.10;;;2.58;;
75537;SDS011;64121;48.666;8.114;2023-04-03T03:05:00;4.25;;;2.22;;
75537;SDS011;64121;48.666;8.114;2023-04-03T03:07:26;2.38;;;1.60;;
75537;SDS011;64121;48.666;8.114;2023-04-03T03:09:51;5.28;;;2.70;;
75537;SDS011;64121;48.666;8.114;2023-04-03T03:12:17;3.78;;;2.20;;
75537;SDS011;64121;48.666;8.114;2023-04-03T03:14:44;3.38;;;2.40;;
75537;SDS011;64121;48.666;8.114;2023-04-03T03:17:09;3.42;;;2.40;;
75537;SDS011;64121;48.666;8.114;2023-04-03T03:19:34;3.42;;;2.08;;
75537;SDS011;64121;48.666;8.114;2023-04-03T03:22:00;3.42;;;2.50;;
75537;SDS011;64121;48.666;8.114;2023-04-03T03:24:25;3.25;;;2.50;;
75537;SDS011;64121;48.666;8.114;2023-04-03T03:26:50;3.80;;;2.53;;
75537;SDS011;64121;48.666;8.114;2023-04-03T03:29:16;3.65;;;2.15;;
75537;SDS011;64121;48.666;8.114;2023-04-03T03:31:42;3.88;;;2.40;;
75537;SDS011;64121;48.666;8.114;2023-04-03T03:34:08;4.38;;;2.60;;
75537;SDS011;64121;48.666;8.114;2023-04-03T03:36:33;3.90;;;2.30;;
75537;SDS011;64121;48.666;8.114;2023-04-03T03:38:58;3.00;;;2.17;;
75537;SDS011;64121;48.666;8.114;2023-04-03T03:41:24;4.95;;;2.22;;
75537;SDS011;64121;48.666;8.114;2023-04-03T03:43:49;3.67;;;2.42;;
75537;SDS011;64121;48.666;8.114;2023-04-03T03:46:14;4.07;;;2.28;;
75537;SDS011;64121;48.666;8.114;2023-04-03T03:48:41;2.97;;;2.20;;
75537;SDS011;64121;48.666;8.114;2023-04-03T03:51:06;2.83;;;1.80;;
75537;SDS011;64121;48.666;8.114;2023-04-03T03:53:32;3.90;;;2.53;;
75537;SDS011;64121;48.666;8.114;2023-04-03T03:55:57;3.90;;;2.17;;
75537;SDS011;64121;48.666;8.114;2023-04-03T03:58:22;4.55;;;2.20;;
75537;SDS011;64121;48.666;8.114;2023-04-03T04:00:48;5.68;;;2.15;;
75537;SDS011;64121;48.666;8.114;2023-04-03T04:03:13;3.33;;;2.25;;
75537;SDS011;64121;48.666;8.114;2023-04-03T04:05:40;3.92;;;2.47;;
75537;SDS011;64121;48.666;8.114;2023-04-03T04:08:05;3.67;;;2.33;;
75537;SDS011;64121;48.666;8.114;2023-04-03T04:10:31;4.18;;;2.10;;
75537;SDS011;64121;48.666;8.114;2023-04-03T04:12:56;4.35;;;2.00;;
75537;SDS011;64121;48.666;8.114;2023-04-03T04:15:21;4.55;;;2.50;;
75537;SDS011;64121;48.666;8.114;2023-04-03T04:17:47;5.05;;;2.58;;
75537;SDS011;64121;48.666;8.114;2023-04-03T04:20:12;4.70;;;2.55;;
75537;SDS011;64121;48.666;8.114;2023-04-03T04:22:39;5.90;;;2.85;;
75537;SDS011;64121;48.666;8.114;2023-04-03T04:25:04;4.88;;;2.65;;
75537;SDS011;64121;48.666;8.114;2023-04-03T04:27:30;3.80;;;2.60;;
75537;SDS011;64121;48.666;8.114;2023-04-03T04:29:55;3.83;;;2.78;;
75537;SDS011;64121;48.666;8.114;2023-04-03T04:32:20;4.32;;;2.28;;
75537;SDS011;64121;48.666;8.114;2023-04-03T04:34:46;3.78;;;2.40;;
75537;SDS011;64121;48.666;8.114;2023-04-03T04:37:11;3.42;;;2.28;;
75537;SDS011;64121;48.666;8.114;2023-04-03T04:39:38;4.30;;;2.80;;
75537;SDS011;64121;48.666;8.114;2023-04-03T04:42:03;3.13;;;2.17;;
75537;SDS011;64121;48.666;8.114;2023-04-03T04:44:28;3.47;;;2.70;;
75537;SDS011;64121;48.666;8.114;2023-04-03T04:46:54;4.22;;;2.30;;
75537;SDS011;64121;48.666;8.114;2023-04-03T04:49:19;3.75;;;2.70;;
75537;SDS011;64121;48.666;8.114;2023-04-03T04:51:45;3.63;;;2.50;;
75537;SDS011;64121;48.666;8.114;2023-04-03T04:54:10;4.65;;;2.80;;
75537;SDS011;64121;48.666;8.114;2023-04-03T04:56:37;5.05;;;2.40;;
75537;SDS011;64121;48.666;8.114;2023-04-03T04:59:02;10.15;;;4.75;;
75537;SDS011;64121;48.666;8.114;2023-04-03T05:01:27;8.02;;;4.28;;
75537;SDS011;64121;48.666;8.114;2023-04-03T05:03:53;6.57;;;3.22;;
75537;SDS011;64121;48.666;8.114;2023-04-03T05:06:18;4.47;;;3.20;;
75537;SDS011;64121;48.666;8.114;2023-04-03T05:08:43;7.65;;;3.88;;
75537;SDS011;64121;48.666;8.114;2023-04-03T05:11:09;5.82;;;3.28;;
75537;SDS011;64121;48.666;8.114;2023-04-03T05:13:35;5.80;;;3.63;;
75537;SDS011;64121;48.666;8.114;2023-04-03T05:16:01;10.35;;;4.05;;
75537;SDS011;64121;48.666;8.114;2023-04-03T05:18:26;6.35;;;3.67;;
75537;SDS011;64121;48.666;8.114;2023-04-03T05:20:51;7.18;;;3.05;;
75537;SDS011;64121;48.666;8.114;2023-04-03T05:23:17;7.18;;;3.85;;
75537;SDS011;64121;48.666;8.114;2023-04-03T05:25:42;8.80;;;5.00;;
75537;SDS011;64121;48.666;8.114;2023-04-03T05:28:08;4.60;;;2.75;;
75537;SDS011;64121;48.666;8.114;2023-04-03T05:30:34;4.57;;;2.60;;
75537;SDS011;64121;48.666;8.114;2023-04-03T05:33:00;4.50;;;3.08;;
75537;SDS011;64121;48.666;8.114;2023-04-03T05:35:25;7.85;;;3.58;;
75537;SDS011;64121;48.666;8.114;2023-04-03T05:37:51;5.03;;;3.17;;
75537;SDS011;64121;48.666;8.114;2023-04-03T05:40:16;5.50;;;3.03;;
75537;SDS011;64121;48.666;8.114;2023-04-03T05:42:42;6.95;;;3.72;;
75537;SDS011;64121;48.666;8.114;2023-04-03T05:45:07;6.28;;;3.53;;
75537;SDS011;64121;48.666;8.114;2023-04-03T05:47:34;4.47;;;3.10;;
75537;SDS011;64121;48.666;8.114;2023-04-03T05:49:59;4.63;;;2.80;;
75537;SDS011;64121;48.666;8.114;2023-04-03T05:52:25;4.28;;;2.88;;
75537;SDS011;64121;48.666;8.114;2023-04-03T05:54:52;5.32;;;3.08;;
75537;SDS011;64121;48.666;8.114;2023-04-03T05:57:18;5.68;;;3.10;;
75537;SDS011;64121;48.666;8.114;2023-04-03T05:59:43;5.05;;;2.63;;
75537;SDS011;64121;48.666;8.114;2023-04-03T06:02:10;4.25;;;2.97;;
75537;SDS011;64121;48.666;8.114;2023-04-03T06:04:37;4.47;;;2.88;;
75537;SDS011;64121;48.666;8.114;2023-04-03T06:07:03;3.53;;;2.60;;
75537;SDS011;64121;48.666;8.114;2023-04-03T06:09:28;4.55;;;2.85;;
75537;SDS011;64121;48.666;8.114;2023-04-03T06:11:54;4.28;;;2.83;;
75537;SDS011;64121;48.666;8.114;2023-04-03T06:14:20;4.03;;;2.50;;
75537;SDS011;64121;48.666;8.114;2023-04-03T06:16:45;5.22;;;2.35;;
75537;SDS011;64121;48.666;8.114;2023-04-03T06:19:11;5.25;;;2.80;;
75537;SDS011;64121;48.666;8.114;2023-04-03T06:21:38;3.42;;;2.60;;
75537;SDS011;64121;48.666;8.114;2023-04-03T06:24:04;3.92;;;2.22;;
75537;SDS011;64121;48.666;8.114;2023-04-03T06:26:30;4.13;;;2.80;;
75537;SDS011;64121;48.666;8.114;2023-04-03T06:28:55;3.15;;;1.90;;
75537;SDS011;64121;48.666;8.114;2023-04-03T06:31:21;4.60;;;2.45;;
75537;SDS011;64121;48.666;8.114;2023-04-03T06:33:46;8.05;;;2.60;;
75537;SDS011;64121;48.666;8.114;2023-04-03T06:36:12;3.83;;;2.38;;
75537;SDS011;64121;48.666;8.114;2023-04-03T06:38:38;4.65;;;2.72;;
75537;SDS011;64121;48.666;8.114;2023-04-03T06:41:04;3.50;;;2.40;;
75537;SDS011;64121;48.666;8.114;2023-04-03T06:43:29;5.18;;;2.40;;
75537;SDS011;64121;48.666;8.114;2023-04-03T06:45:54;5.05;;;2.83;;
75537;SDS011;64121;48.666;8.114;2023-04-03T06:48:20;3.85;;;2.67;;
75537;SDS011;64121;48.666;8.114;2023-04-03T06:50:45;5.72;;;3.03;;
75537;SDS011;64121;48.666;8.114;2023-04-03T06:53:10;3.35;;;2.50;;
75537;SDS011;64121;48.666;8.114;2023-04-03T06:55:37;5.30;;;2.88;;
75537;SDS011;64121;48.666;8.114;2023-04-03T06:58:03;4.80;;;3.05;;
75537;SDS011;64121;48.666;8.114;2023-04-03T07:00:29;5.05;;;2.47;;
75537;SDS011;64121;48.666;8.114;2023-04-03T07:02:54;4.15;;;2.70;;
75537;SDS011;64121;48.666;8.114;2023-04-03T07:05:19;5.93;;;2.58;;
75537;SDS011;64121;48.666;8.114;2023-04-03T07:07:45;3.40;;;2.38;;
75537;SDS011;64121;48.666;8.114;2023-04-03T07:10:10;4.80;;;2.83;;
75537;SDS011;64121;48.666;8.114;2023-04-03T07:12:37;5.32;;;2.70;;
75537;SDS011;64121;48.666;8.114;2023-04-03T07:15:04;3.30;;;2.33;;
75537;SDS011;64121;48.666;8.114;2023-04-03T07:17:30;4.30;;;2.80;;
75537;SDS011;64121;48.666;8.114;2023-04-03T07:19:56;3.63;;;1.88;;
75537;SDS011;64121;48.666;8.114;2023-04-03T07:22:21;4.82;;;2.42;;
75537;SDS011;64121;48.666;8.114;2023-04-03T07:24:47;3.78;;;2.10;;
75537;SDS011;64121;48.666;8.114;2023-04-03T07:27:12;4.28;;;2.05;;
75537;SDS011;64121;48.666;8.114;2023-04-03T07:29:39;3.65;;;2.08;;
75537;SDS011;64121;48.666;8.114;2023-04-03T07:32:05;3.63;;;2.15;;
75537;SDS011;64121;48.666;8.114;2023-04-03T07:34:30;5.25;;;1.90;;
75537;SDS011;64121;48.666;8.114;2023-04-03T07:36:56;3.80;;;2.53;;
75537;SDS011;64121;48.666;8.114;2023-04-03T07:39:21;3.75;;;2.17;;
75537;SDS011;64121;48.666;8.114;2023-04-03T07:41:47;2.72;;;2.00;;
75537;SDS011;64121;48.666;8.114;2023-04-03T07:44:12;3.65;;;1.85;;
75537;SDS011;64121;48.666;8.114;2023-04-03T07:46:39;4.13;;;2.40;;
75537;SDS011;64121;48.666;8.114;2023-04-03T07:49:04;3.38;;;2.28;;
75537;SDS011;64121;48.666;8.114;2023-04-03T07:51:29;4.20;;;2.20;;
75537;SDS011;64121;48.666;8.114;2023-04-03T07:53:55;4.10;;;2.28;;
75537;SDS011;64121;48.666;8.114;2023-04-03T07:56:20;3.85;;;2.13;;
75537;SDS011;64121;48.666;8.114;2023-04-03T07:58:46;3.00;;;2.05;;
75537;SDS011;64121;48.666;8.114;2023-04-03T08:01:11;3.00;;;2.10;;
75537;SDS011;64121;48.666;8.114;2023-04-03T08:03:38;3.55;;;1.85;;
75537;SDS011;64121;48.666;8.114;2023-04-03T08:06:05;3.58;;;1.92;;
75537;SDS011;64121;48.666;8.114;2023-04-03T08:08:32;4.38;;;2.13;;
75537;SDS011;64121;48.666;8.114;2023-04-03T08:10:58;2.97;;;2.00;;
75537;SDS011;64121;48.666;8.114;2023-04-03T08:13:24;3.05;;;1.95;;
75537;SDS011;64121;48.666;8.114;2023-04-03T08:15:50;3.17;;;1.77;;
75537;SDS011;64121;48.666;8.114;2023-04-03T08:18:16;4.97;;;2.25;;
75537;SDS011;64121;48.666;8.114;2023-04-03T08:20:43;5.97;;;2.10;;
75537;SDS011;64121;48.666;8.114;2023-04-03T08:23:09;3.22;;;1.98;;
75537;SDS011;64121;48.666;8.114;2023-04-03T08:25:37;2.80;;;1.88;;
75537;SDS011;64121;48.666;8.114;2023-04-03T08:28:02;2.30;;;1.50;;
75537;SDS011;64121;48.666;8.114;2023-04-03T08:30:28;3.00;;;1.27;;
75537;SDS011;64121;48.666;8.114;2023-04-03T08:32:53;4.32;;;1.70;;
75537;SDS011;64121;48.666;8.114;2023-04-03T08:35:18;2.47;;;1.52;;
75537;SDS011;64121;48.666;8.114;2023-04-03T08:37:45;1.65;;;1.15;;
75537;SDS011;64121;48.666;8.114;2023-04-03T08:40:13;2.25;;;1.50;;
75537;SDS011;64121;48.666;8.114;2023-04-03T08:42:42;4.30;;;1.77;;
75537;SDS011;64121;48.666;8.114;2023-04-03T08:45:17;3.33;;;1.75;;
75537;SDS011;64121;48.666;8.114;2023-04-03T08:47:47;2.90;;;1.70;;
75537;SDS011;64121;48.666;8.114;2023-04-03T08:50:18;3.22;;;1.80;;
75537;SDS011;64121;48.666;8.114;2023-04-03T08:52:47;2.70;;;1.60;;
75537;SDS011;64121;48.666;8.114;2023-04-03T08:55:19;2.63;;;1.50;;
75537;SDS011;64121;48.666;8.114;2023-04-03T08:57:48;4.00;;;1.47;;
75537;SDS011;64121;48.666;8.114;2023-04-03T09:00:20;3.33;;;1.63;;
75537;SDS011;64121;48.666;8.114;2023-04-03T09:02:48;2.78;;;1.55;;
75537;SDS011;64121;48.666;8.114;2023-04-03T09:05:17;2.40;;;1.40;;
75537;SDS011;64121;48.666;8.114;2023-04-03T09:07:48;3.20;;;1.98;;
75537;SDS011;64121;48.666;8.114;2023-04-03T09:10:23;2.00;;;1.50;;
75537;SDS011;64121;48.666;8.114;2023-04-03T09:12:53;2.92;;;1.83;;
75537;SDS011;64121;48.666;8.114;2023-04-03T09:15:24;2.45;;;1.90;;
75537;SDS011;64121;48.666;8.114;2023-04-03T09:17:57;3.22;;;1.90;;
75537;SDS011;64121;48.666;8.114;2023-04-03T09:20:30;2.67;;;1.85;;
75537;SDS011;64121;48.666;8.114;2023-04-03T09:23:08;3.22;;;1.98;;
75537;SDS011;64121;48.666;8.114;2023-04-03T09:25:40;3.33;;;2.05;;
75537;SDS011;64121;48.666;8.114;2023-04-03T09:28:07;3.83;;;2.60;;
75537;SDS011;64121;48.666;8.114;2023-04-03T09:30:32;3.85;;;2.38;;
75537;SDS011;64121;48.666;8.114;2023-04-03T09:32:58;3.70;;;2.00;;
75537;SDS011;64121;48.666;8.114;2023-04-03T09:35:24;2.80;;;2.00;;
75537;SDS011;64121;48.666;8.114;2023-04-03T09:37:50;3.78;;;1.58;;
75537;SDS011;64121;48.666;8.114;2023-04-03T09:40:29;3.25;;;2.08;;
75537;SDS011;64121;48.666;8.114;2023-04-03T09:42:58;2.70;;;1.77;;
75537;SDS011;64121;48.666;8.114;2023-04-03T09:45:25;3.28;;;2.15;;
75537;SDS011;64121;48.666;8.114;2023-04-03T09:48:05;2.75;;;2.00;;
75537;SDS011;64121;48.666;8.114;2023-04-03T09:50:32;4.28;;;2.20;;
75537;SDS011;64121;48.666;8.114;2023-04-03T09:52:58;2.47;;;1.75;;
75537;SDS011;64121;48.666;8.114;2023-04-03T09:55:24;3.63;;;2.15;;
75537;SDS011;64121;48.666;8.114;2023-04-03T09:57:52;2.75;;;1.77;;
75537;SDS011;64121;48.666;8.114;2023-04-03T10:00:19;2.63;;;1.75;;
75537;SDS011;64121;48.666;8.114;2023-04-03T10:02:46;4.60;;;2.00;;
75537;SDS011;64121;48.666;8.114;2023-04-03T10:05:26;2.92;;;2.00;;
75537;SDS011;64121;48.666;8.114;2023-04-03T10:08:08;3.10;;;2.03;;
75537;SDS011;64121;48.666;8.114;2023-04-03T10:10:45;4.55;;;2.35;;
75537;SDS011;64121;48.666;8.114;2023-04-03T10:13:13;3.15;;;2.08;;
75537;SDS011;64121;48.666;8.114;2023-04-03T10:15:41;2.58;;;1.88;;
75537;SDS011;64121;48.666;8.114;2023-04-03T10:18:26;3.33;;;2.08;;
75537;SDS011;64121;48.666;8.114;2023-04-03T10:20:58;2.85;;;2.00;;
75537;SDS011;64121;48.666;8.114;2023-04-03T10:23:28;4.25;;;2.70;;
75537;SDS011;64121;48.666;8.114;2023-04-03T10:26:00;3.38;;;2.00;;
75537;SDS011;64121;48.666;8.114;2023-04-03T10:28:38;3.40;;;2.10;;
75537;SDS011;64121;48.666;8.114;2023-04-03T10:31:12;3.10;;;2.00;;
75537;SDS011;64121;48.666;8.114;2023-04-03T10:33:47;3.17;;;2.17;;
75537;SDS011;64121;48.666;8.114;2023-04-03T10:36:22;4.38;;;2.00;;
75537;SDS011;64121;48.666;8.114;2023-04-03T10:39:00;3.15;;;1.73;;
75537;SDS011;64121;48.666;8.114;2023-04-03T10:41:33;2.83;;;1.90;;
75537;SDS011;64121;48.666;8.114;2023-04-03T10:44:14;3.22;;;2.10;;
75537;SDS011;64121;48.666;8.114;2023-04-03T10:46:44;3.00;;;1.80;;
75537;SDS011;64121;48.666;8.114;2023-04-03T10:49:18;2.70;;;2.00;;
75537;SDS011;64121;48.666;8.114;2023-04-03T10:51:51;2.72;;;1.85;;
75537;SDS011;64121;48.666;8.114;2023-04-03T10:54:28;3.22;;;1.77;;
75537;SDS011;64121;48.666;8.114;2023-04-03T10:57:00;3.35;;;2.00;;
75537;SDS011;64121;48.666;8.114;2023-04-03T10:59:30;2.55;;;2.03;;
75537;SDS011;64121;48.666;8.114;2023-04-03T11:01:59;2.83;;;1.80;;
75537;SDS011;64121;48.666;8.114;2023-04-03T11:04:27;2.70;;;1.92;;
75537;SDS011;64121;48.666;8.114;2023-04-03T11:06:59;4.03;;;2.20;;
75537;SDS011;64121;48.666;8.114;2023-04-03T11:09:28;4.00;;;2.28;;
75537;SDS011;64121;48.666;8.114;2023-04-03T11:11:57;4.13;;;1.80;;
75537;SDS011;64121;48.666;8.114;2023-04-03T11:14:27;2.75;;;2.00;;
75537;SDS011;64121;48.666;8.114;2023-04-03T11:17:01;2.47;;;1.83;;
75537;SDS011;64121;48.666;8.114;2023-04-03T11:19:34;3.80;;;2.78;;
75537;SDS011;64121;48.666;8.114;2023-04-03T11:22:04;4.03;;;1.90;;
75537;SDS011;64121;48.666;8.114;2023-04-03T11:24:36;2.95;;;1.73;;
75537;SDS011;64121;48.666;8.114;2023-04-03T11:27:08;3.25;;;1.88;;
75537;SDS011;64121;48.666;8.114;2023-04-03T11:29:40;3.17;;;1.88;;
75537;SDS011;64121;48.666;8.114;2023-04-03T11:32:11;2.92;;;2.13;;
75537;SDS011;64121;48.666;8.114;2023-04-03T11:34:48;3.15;;;1.73;;
75537;SDS011;64121;48.666;8.114;2023-04-03T11:37:16;4.60;;;2.05;;
75537;SDS011;64121;48.666;8.114;2023-04-03T11:39:47;2.70;;;1.48;;
75537;SDS011;64121;48.666;8.114;2023-04-03T11:42:24;3.63;;;1.98;;
75537;SDS011;64121;48.666;8.114;2023-04-03T11:47:55;4.32;;;2.10;;
75537;SDS011;64121;48.666;8.114;2023-04-03T11:50:31;3.83;;;1.90;;
75537;SDS011;64121;48.666;8.114;2023-04-03T11:55:52;3.10;;;2.03;;
75537;SDS011;64121;48.666;8.114;2023-04-03T11:58:23;3.30;;;2.30;;
75537;SDS011;64121;48.666;8.114;2023-04-03T12:00:54;3.55;;;1.83;;
75537;SDS011;64121;48.666;8.114;2023-04-03T12:03:32;3.30;;;2.05;;
75537;SDS011;64121;48.666;8.114;2023-04-03T12:09:29;4.32;;;2.03;;
75537;SDS011;64121;48.666;8.114;2023-04-03T12:11:59;2.95;;;1.95;;
75537;SDS011;64121;48.666;8.114;2023-04-03T12:14:26;3.00;;;2.15;;
75537;SDS011;64121;48.666;8.114;2023-04-03T12:16:54;2.80;;;1.70;;
75537;SDS011;64121;48.666;8.114;2023-04-03T12:19:29;4.53;;;1.85;;
75537;SDS011;64121;48.666;8.114;2023-04-03T12:22:08;2.65;;;1.75;;
75537;SDS011;64121;48.666;8.114;2023-04-03T12:24:37;3.78;;;1.63;;
75537;SDS011;64121;48.666;8.114;2023-04-03T12:27:07;3.10;;;1.92;;
75537;SDS011;64121;48.666;8.114;2023-04-03T12:29:43;3.17;;;2.08;;
75537;SDS011;64121;48.666;8.114;2023-04-03T12:32:15;4.97;;;2.28;;
75537;SDS011;64121;48.666;8.114;2023-04-03T12:34:53;4.03;;;2.13;;
75537;SDS011;64121;48.666;8.114;2023-04-03T12:37:38;2.58;;;1.30;;
75537;SDS011;64121;48.666;8.114;2023-04-03T12:40:16;2.85;;;1.73;;
75537;SDS011;64121;48.666;8.114;2023-04-03T12:42:56;2.92;;;1.70;;
75537;SDS011;64121;48.666;8.114;2023-04-03T12:45:39;3.25;;;1.73;;
75537;SDS011;64121;48.666;8.114;2023-04-03T12:48:10;3.47;;;1.80;;
75537;SDS011;64121;48.666;8.114;2023-04-03T12:50:39;3.63;;;1.92;;
75537;SDS011;64121;48.666;8.114;2023-04-03T12:53:11;3.08;;;1.60;;
75537;SDS011;64121;48.666;8.114;2023-04-03T12:55:38;5.80;;;2.03;;
75537;SDS011;64121;48.666;8.114;2023-04-03T12:58:14;4.38;;;1.55;;
75537;SDS011;64121;48.666;8.114;2023-04-03T13:00:40;3.53;;;1.70;;
75537;SDS011;64121;48.666;8.114;2023-04-03T13:03:06;3.47;;;2.25;;
75537;SDS011;64121;48.666;8.114;2023-04-03T13:05:48;2.88;;;1.50;;
75537;SDS011;64121;48.666;8.114;2023-04-03T13:08:15;3.72;;;1.50;;
75537;SDS011;64121;48.666;8.114;2023-04-03T13:10:43;3.20;;;1.77;;
75537;SDS011;64121;48.666;8.114;2023-04-03T13:13:16;2.80;;;2.10;;
75537;SDS011;64121;48.666;8.114;2023-04-03T13:15:42;2.85;;;1.77;;
75537;SDS011;64121;48.666;8.114;2023-04-03T13:18:20;2.80;;;2.15;;
75537;SDS011;64121;48.666;8.114;2023-04-03T13:20:47;3.13;;;1.60;;
75537;SDS011;64121;48.666;8.114;2023-04-03T13:23:15;3.72;;;1.70;;
75537;SDS011;64121;48.666;8.114;2023-04-03T13:25:42;3.38;;;1.80;;
75537;SDS011;64121;48.666;8.114;2023-04-03T13:28:10;2.85;;;1.40;;
75537;SDS011;64121;48.666;8.114;2023-04-03T13:30:38;3.40;;;1.80;;
75537;SDS011;64121;48.666;8.114;2023-04-03T13:33:05;2.15;;;1.40;;
75537;SDS011;64121;48.666;8.114;2023-04-03T13:35:43;2.65;;;1.40;;
75537;SDS011;64121;48.666;8.114;2023-04-03T13:38:23;2.90;;;1.90;;
75537;SDS011;64121;48.666;8.114;2023-04-03T13:40:50;2.83;;;2.10;;
75537;SDS011;64121;48.666;8.114;2023-04-03T13:43:19;2.83;;;1.50;;
75537;SDS011;64121;48.666;8.114;2023-04-03T13:45:54;7.82;;;1.90;;
75537;SDS011;64121;48.666;8.114;2023-04-03T13:48:22;3.95;;;1.70;;
75537;SDS011;64121;48.666;8.114;2023-04-03T13:50:51;3.22;;;1.60;;
75537;SDS011;64121;48.666;8.114;2023-04-03T13:53:19;4.07;;;1.67;;
75537;SDS011;64121;48.666;8.114;2023-04-03T13:55:54;2.95;;;1.70;;
75537;SDS011;64121;48.666;8.114;2023-04-03T13:58:23;2.97;;;1.58;;
75537;SDS011;64121;48.666;8.114;2023-04-03T14:00:51;3.67;;;1.50;;
75537;SDS011;64121;48.666;8.114;2023-04-03T14:03:18;2.90;;;1.73;;
75537;SDS011;64121;48.666;8.114;2023-04-03T14:05:46;3.40;;;1.92;;
75537;SDS011;64121;48.666;8.114;2023-04-03T14:08:11;3.28;;;1.50;;
75537;SDS011;64121;48.666;8.114;2023-04-03T14:10:37;2.88;;;1.50;;
75537;SDS011;64121;48.666;8.114;2023-04-03T14:13:04;3.55;;;1.45;;
75537;SDS011;64121;48.666;8.114;2023-04-03T14:15:30;3.08;;;1.60;;
75537;SDS011;64121;48.666;8.114;2023-04-03T14:17:56;2.92;;;1.90;;
75537;SDS011;64121;48.666;8.114;2023-04-03T14:20:22;2.40;;;1.60;;
75537;SDS011;64121;48.666;8.114;2023-04-03T14:22:50;2.47;;;1.30;;
75537;SDS011;64121;48.666;8.114;2023-04-03T14:25:15;6.00;;;2.30;;
75537;SDS011;64121;48.666;8.114;2023-04-03T14:27:41;3.90;;;2.10;;
75537;SDS011;64121;48.666;8.114;2023-04-03T14:30:12;4.80;;;2.55;;
75537;SDS011;64121;48.666;8.114;2023-04-03T14:32:40;3.72;;;1.85;;
75537;SDS011;64121;48.666;8.114;2023-04-03T14:35:06;3.05;;;1.67;;
75537;SDS011;64121;48.666;8.114;2023-04-03T14:37:32;4.28;;;1.98;;
75537;SDS011;64121;48.666;8.114;2023-04-03T14:39:58;3.38;;;2.40;;
75537;SDS011;64121;48.666;8.114;2023-04-03T14:42:26;3.88;;;2.03;;
75537;SDS011;64121;48.666;8.114;2023-04-03T14:44:53;4.00;;;2.08;;
75537;SDS011;64121;48.666;8.114;2023-04-03T14:47:21;2.85;;;1.58;;
75537;SDS011;64121;48.666;8.114;2023-04-03T14:49:49;3.67;;;1.30;;
75537;SDS011;64121;48.666;8.114;2023-04-03T14:52:16;2.40;;;1.50;;
75537;SDS011;64121;48.666;8.114;2023-04-03T14:54:43;2.92;;;1.70;;
75537;SDS011;64121;48.666;8.114;2023-04-03T14:57:09;4.45;;;1.40;;
75537;SDS011;64121;48.666;8.114;2023-04-03T14:59:38;3.20;;;1.67;;
75537;SDS011;64121;48.666;8.114;2023-04-03T15:02:08;2.47;;;1.50;;